CheckWX is a tool to help pilots better visualize weather data.  It is not intended as a substitute for an official pre-flight weather briefing.

21:06:47 UTC

KRIL METAR
Rifle Garfield County Airport
Rifle, Colorado, USA
Current

14 mins ago

KRIL 262053Z AUTO 00000KT 10SM FEW100 03/M03 A3014 RMK AO2 SLP224 T00281033 58022 $
Observed
Jan-26 @ 20:53 UTC
Visibility
10 SM
Flight Rules
VFR
Cloud Levels
  • Few at 10,000' AGL
Temperature
C / 37°F
Dewpoint
-3°C / 27°F
Humidity
65%
Altimeter
30.14" Hg
Pressure
1020.62 hPa
Previous

1 hour ago

KRIL 261953Z AUTO 00000KT 10SM CLR M01/M03 A3018 RMK AO2 SLP249 T10061033 $
Observed
Jan-26 @ 19:53 UTC
Visibility
10 SM
Flight Rules
VFR
Cloud Levels
  • Clear skies
Temperature
-1°C / 30°F
Dewpoint
-3°C / 27°F
Humidity
86%
Altimeter
30.18" Hg
Pressure
1022.02 hPa
Previous

2 hours ago

KRIL 261853Z AUTO 00000KT 8SM FEW006 SCT100 M02/M03 A3022 RMK AO2 SLP264 T10171033 $
Observed
Jan-26 @ 18:53 UTC
Visibility
8 SM
Flight Rules
VFR
Cloud Levels
  • Few at 600' AGL
  • Scattered at 10,000' AGL
Temperature
-2°C / 28°F
Dewpoint
-3°C / 27°F
Humidity
93%
Altimeter
30.22" Hg
Pressure
1023.42 hPa